Main page
METAR-TAF:

METAR-TAF

Airports :

Kuwait City, Kuwait

Kuwait International Airport

latitude: 29-13N, longitude: 047-59E, elevation: 55 m

Current weather observation

The report was made 19 minutes ago, at 11:00 UTC
Wind 14 kt from the Southeast
Temperature 33°C
Humidity 24%
Pressure 1007 hPa
Visibility: 7000 m

METAR: OKBK 261100Z 13014KT 7000 NSC 33/10 Q1007 NOSIG

Time: 14:19 (11:19 UTC)

Forecast

The report was made 6 hours and 34 minutes ago, at 04:45 UTC
Forecast valid from 26 at 06 UTC to 27 at 12 UTC
Wind 12 kt from the Southeast with gusts up to 22 kt
Visibility: 6000 m
Scattered clouds at a height of 4000 ft
Broken clouds at a height of 8000 ft
Temporary
from 26 at 06 UTC to 26 at 21 UTC
Visibility: 3000 m
Few clouds at a height of 3000 ft, Cumulonimbus.

TAF: OKBK 260445Z 2606/2712 14012G22KT 6000 SCT040 BKN080 TEMPO 2606/2621 3000 TSRA/BLDU FEW030CB

Weather observations and forecasts of more than 4000 airports (METAR and TAF reports).

The available stations are represented by yellow and red dots on the map.

Hover mouse over dot to see the name of the station.

Then click to see weather observations and forecasts.

To change the map : click on the green buttons with a black cross to zoom in, on the green button with a dash to zoom out, or on the green arrows for adjacent maps.


METAR-TAF: